sensor_id;sensor_type;location;lat;lon;timestamp;P1;durP1;ratioP1;P2;durP2;ratioP2
20954;SDS011;10636;19.390;-99.256;2022-10-22T00:00:44;11.68;;;10.98;;
20954;SDS011;10636;19.390;-99.256;2022-10-22T00:03:12;3.85;;;3.55;;
20954;SDS011;10636;19.390;-99.256;2022-10-22T00:05:48;13.38;;;12.68;;
20954;SDS011;10636;19.390;-99.256;2022-10-22T00:08:19;13.10;;;12.43;;
20954;SDS011;10636;19.390;-99.256;2022-10-22T00:10:48;11.65;;;11.05;;
20954;SDS011;10636;19.390;-99.256;2022-10-22T00:13:17;12.23;;;11.63;;
20954;SDS011;10636;19.390;-99.256;2022-10-22T00:15:45;13.63;;;12.93;;
20954;SDS011;10636;19.390;-99.256;2022-10-22T00:18:14;13.98;;;13.27;;
20954;SDS011;10636;19.390;-99.256;2022-10-22T00:20:42;13.25;;;12.50;;
20954;SDS011;10636;19.390;-99.256;2022-10-22T00:23:14;12.80;;;12.05;;
20954;SDS011;10636;19.390;-99.256;2022-10-22T00:25:43;12.98;;;12.32;;
20954;SDS011;10636;19.390;-99.256;2022-10-22T00:28:11;13.38;;;12.57;;
20954;SDS011;10636;19.390;-99.256;2022-10-22T00:30:40;4.97;;;4.57;;
20954;SDS011;10636;19.390;-99.256;2022-10-22T00:33:08;13.30;;;12.65;;
20954;SDS011;10636;19.390;-99.256;2022-10-22T00:35:39;14.55;;;13.68;;
20954;SDS011;10636;19.390;-99.256;2022-10-22T00:38:09;5.22;;;4.72;;
20954;SDS011;10636;19.390;-99.256;2022-10-22T00:40:42;12.52;;;11.82;;
20954;SDS011;10636;19.390;-99.256;2022-10-22T00:43:21;6.32;;;5.70;;
20954;SDS011;10636;19.390;-99.256;2022-10-22T00:45:49;7.03;;;6.53;;
20954;SDS011;10636;19.390;-99.256;2022-10-22T00:48:24;14.68;;;13.77;;
20954;SDS011;10636;19.390;-99.256;2022-10-22T00:50:55;12.10;;;11.35;;
20954;SDS011;10636;19.390;-99.256;2022-10-22T00:53:27;13.60;;;12.80;;
20954;SDS011;10636;19.390;-99.256;2022-10-22T00:56:05;11.45;;;10.70;;
20954;SDS011;10636;19.390;-99.256;2022-10-22T00:58:36;13.40;;;12.50;;
20954;SDS011;10636;19.390;-99.256;2022-10-22T01:01:11;13.10;;;12.13;;
20954;SDS011;10636;19.390;-99.256;2022-10-22T01:03:44;14.73;;;13.73;;
20954;SDS011;10636;19.390;-99.256;2022-10-22T01:06:14;14.25;;;13.25;;
20954;SDS011;10636;19.390;-99.256;2022-10-22T01:08:52;13.30;;;12.30;;
20954;SDS011;10636;19.390;-99.256;2022-10-22T01:11:31;13.45;;;12.55;;
20954;SDS011;10636;19.390;-99.256;2022-10-22T01:14:11;12.98;;;12.10;;
20954;SDS011;10636;19.390;-99.256;2022-10-22T01:16:47;12.70;;;11.82;;
20954;SDS011;10636;19.390;-99.256;2022-10-22T01:19:26;12.27;;;11.57;;
20954;SDS011;10636;19.390;-99.256;2022-10-22T01:22:16;12.82;;;12.02;;
20954;SDS011;10636;19.390;-99.256;2022-10-22T01:24:52;12.23;;;11.50;;
20954;SDS011;10636;19.390;-99.256;2022-10-22T01:27:34;12.73;;;11.93;;
20954;SDS011;10636;19.390;-99.256;2022-10-22T01:30:17;11.57;;;10.88;;
20954;SDS011;10636;19.390;-99.256;2022-10-22T01:32:47;5.32;;;4.57;;
20954;SDS011;10636;19.390;-99.256;2022-10-22T01:35:25;12.98;;;12.07;;
20954;SDS011;10636;19.390;-99.256;2022-10-22T01:37:56;12.73;;;11.93;;
20954;SDS011;10636;19.390;-99.256;2022-10-22T01:40:31;12.85;;;11.90;;
20954;SDS011;10636;19.390;-99.256;2022-10-22T01:43:01;13.07;;;12.27;;
20954;SDS011;10636;19.390;-99.256;2022-10-22T01:45:33;12.47;;;11.73;;
20954;SDS011;10636;19.390;-99.256;2022-10-22T01:48:07;7.45;;;6.40;;
20954;SDS011;10636;19.390;-99.256;2022-10-22T01:53:52;17.30;;;16.15;;
20954;SDS011;10636;19.390;-99.256;2022-10-22T01:56:28;12.60;;;11.27;;
20954;SDS011;10636;19.390;-99.256;2022-10-22T01:59:07;22.10;;;20.50;;
20954;SDS011;10636;19.390;-99.256;2022-10-22T02:01:51;23.55;;;21.75;;
20954;SDS011;10636;19.390;-99.256;2022-10-22T02:04:25;22.05;;;20.27;;
20954;SDS011;10636;19.390;-99.256;2022-10-22T02:06:58;24.60;;;22.80;;
20954;SDS011;10636;19.390;-99.256;2022-10-22T02:09:31;24.00;;;22.20;;
20954;SDS011;10636;19.390;-99.256;2022-10-22T02:12:01;23.35;;;21.55;;
20954;SDS011;10636;19.390;-99.256;2022-10-22T02:14:31;24.65;;;22.88;;
20954;SDS011;10636;19.390;-99.256;2022-10-22T02:17:05;26.25;;;24.15;;
20954;SDS011;10636;19.390;-99.256;2022-10-22T02:19:38;23.10;;;21.40;;
20954;SDS011;10636;19.390;-99.256;2022-10-22T02:22:10;23.33;;;21.52;;
20954;SDS011;10636;19.390;-99.256;2022-10-22T02:24:39;25.67;;;23.85;;
20954;SDS011;10636;19.390;-99.256;2022-10-22T02:27:08;24.05;;;22.15;;
20954;SDS011;10636;19.390;-99.256;2022-10-22T02:29:45;16.33;;;14.63;;
20954;SDS011;10636;19.390;-99.256;2022-10-22T02:32:22;24.63;;;22.73;;
20954;SDS011;10636;19.390;-99.256;2022-10-22T02:34:54;16.20;;;14.57;;
20954;SDS011;10636;19.390;-99.256;2022-10-22T02:37:23;13.88;;;12.57;;
20954;SDS011;10636;19.390;-99.256;2022-10-22T02:39:52;14.07;;;12.77;;
20954;SDS011;10636;19.390;-99.256;2022-10-22T02:42:22;13.52;;;12.32;;
20954;SDS011;10636;19.390;-99.256;2022-10-22T02:44:52;12.75;;;11.65;;
20954;SDS011;10636;19.390;-99.256;2022-10-22T02:47:22;12.88;;;11.85;;
20954;SDS011;10636;19.390;-99.256;2022-10-22T02:49:50;11.95;;;10.80;;
20954;SDS011;10636;19.390;-99.256;2022-10-22T02:52:19;11.20;;;10.30;;
20954;SDS011;10636;19.390;-99.256;2022-10-22T02:54:47;10.63;;;9.70;;
20954;SDS011;10636;19.390;-99.256;2022-10-22T02:57:16;10.13;;;9.32;;
20954;SDS011;10636;19.390;-99.256;2022-10-22T02:59:44;10.00;;;9.13;;
20954;SDS011;10636;19.390;-99.256;2022-10-22T03:02:13;14.70;;;13.68;;
20954;SDS011;10636;19.390;-99.256;2022-10-22T03:04:43;16.63;;;15.52;;
20954;SDS011;10636;19.390;-99.256;2022-10-22T03:07:11;18.35;;;16.98;;
20954;SDS011;10636;19.390;-99.256;2022-10-22T03:09:39;10.05;;;9.18;;
20954;SDS011;10636;19.390;-99.256;2022-10-22T03:12:08;16.60;;;15.45;;
20954;SDS011;10636;19.390;-99.256;2022-10-22T03:14:36;15.82;;;14.73;;
20954;SDS011;10636;19.390;-99.256;2022-10-22T03:17:04;15.80;;;14.70;;
20954;SDS011;10636;19.390;-99.256;2022-10-22T03:19:33;16.05;;;15.05;;
20954;SDS011;10636;19.390;-99.256;2022-10-22T03:22:04;15.82;;;14.73;;
20954;SDS011;10636;19.390;-99.256;2022-10-22T03:24:35;15.23;;;14.23;;
20954;SDS011;10636;19.390;-99.256;2022-10-22T03:27:05;16.25;;;15.20;;
20954;SDS011;10636;19.390;-99.256;2022-10-22T03:29:34;16.25;;;15.15;;
20954;SDS011;10636;19.390;-99.256;2022-10-22T03:32:05;15.65;;;14.65;;
20954;SDS011;10636;19.390;-99.256;2022-10-22T03:34:33;14.32;;;13.32;;
20954;SDS011;10636;19.390;-99.256;2022-10-22T03:37:03;8.60;;;7.80;;
20954;SDS011;10636;19.390;-99.256;2022-10-22T03:39:32;8.80;;;8.00;;
20954;SDS011;10636;19.390;-99.256;2022-10-22T03:42:02;9.00;;;8.10;;
20954;SDS011;10636;19.390;-99.256;2022-10-22T03:44:31;8.70;;;7.90;;
20954;SDS011;10636;19.390;-99.256;2022-10-22T03:47:05;16.00;;;15.00;;
20954;SDS011;10636;19.390;-99.256;2022-10-22T03:49:34;9.23;;;8.43;;
20954;SDS011;10636;19.390;-99.256;2022-10-22T03:52:08;15.27;;;14.23;;
20954;SDS011;10636;19.390;-99.256;2022-10-22T03:54:38;16.73;;;15.57;;
20954;SDS011;10636;19.390;-99.256;2022-10-22T03:57:06;16.55;;;15.45;;
20954;SDS011;10636;19.390;-99.256;2022-10-22T03:59:37;9.90;;;9.00;;
20954;SDS011;10636;19.390;-99.256;2022-10-22T04:02:08;15.18;;;14.13;;
20954;SDS011;10636;19.390;-99.256;2022-10-22T04:04:37;12.52;;;11.57;;
20954;SDS011;10636;19.390;-99.256;2022-10-22T04:07:07;15.35;;;14.35;;
20954;SDS011;10636;19.390;-99.256;2022-10-22T04:09:36;9.60;;;8.80;;
20954;SDS011;10636;19.390;-99.256;2022-10-22T04:12:04;10.55;;;9.75;;
20954;SDS011;10636;19.390;-99.256;2022-10-22T04:14:34;8.38;;;7.60;;
20954;SDS011;10636;19.390;-99.256;2022-10-22T04:17:02;16.50;;;15.18;;
20954;SDS011;10636;19.390;-99.256;2022-10-22T04:19:30;18.50;;;17.40;;
20954;SDS011;10636;19.390;-99.256;2022-10-22T04:21:59;16.70;;;15.50;;
20954;SDS011;10636;19.390;-99.256;2022-10-22T04:24:30;16.17;;;15.18;;
20954;SDS011;10636;19.390;-99.256;2022-10-22T04:26:59;15.80;;;14.77;;
20954;SDS011;10636;19.390;-99.256;2022-10-22T04:29:27;16.63;;;15.57;;
20954;SDS011;10636;19.390;-99.256;2022-10-22T04:31:55;10.93;;;10.02;;
20954;SDS011;10636;19.390;-99.256;2022-10-22T04:34:25;16.90;;;15.75;;
20954;SDS011;10636;19.390;-99.256;2022-10-22T04:36:55;18.00;;;16.75;;
20954;SDS011;10636;19.390;-99.256;2022-10-22T04:39:23;17.48;;;16.38;;
20954;SDS011;10636;19.390;-99.256;2022-10-22T04:41:53;17.77;;;16.58;;
20954;SDS011;10636;19.390;-99.256;2022-10-22T04:44:22;18.45;;;17.25;;
20954;SDS011;10636;19.390;-99.256;2022-10-22T04:46:50;12.18;;;10.98;;
20954;SDS011;10636;19.390;-99.256;2022-10-22T04:49:18;11.77;;;10.63;;
20954;SDS011;10636;19.390;-99.256;2022-10-22T04:51:47;21.27;;;19.77;;
20954;SDS011;10636;19.390;-99.256;2022-10-22T04:54:15;19.33;;;17.92;;
20954;SDS011;10636;19.390;-99.256;2022-10-22T04:56:43;20.17;;;18.77;;
20954;SDS011;10636;19.390;-99.256;2022-10-22T04:59:13;20.13;;;18.80;;
20954;SDS011;10636;19.390;-99.256;2022-10-22T05:01:42;11.23;;;10.20;;
20954;SDS011;10636;19.390;-99.256;2022-10-22T05:04:12;19.25;;;17.95;;
20954;SDS011;10636;19.390;-99.256;2022-10-22T05:06:42;18.10;;;16.77;;
20954;SDS011;10636;19.390;-99.256;2022-10-22T05:09:11;10.73;;;9.65;;
20954;SDS011;10636;19.390;-99.256;2022-10-22T05:11:41;10.52;;;9.52;;
20954;SDS011;10636;19.390;-99.256;2022-10-22T05:14:14;10.70;;;9.70;;
20954;SDS011;10636;19.390;-99.256;2022-10-22T05:16:44;19.90;;;18.60;;
20954;SDS011;10636;19.390;-99.256;2022-10-22T05:19:15;10.50;;;8.95;;
20954;SDS011;10636;19.390;-99.256;2022-10-22T05:21:45;10.30;;;9.30;;
20954;SDS011;10636;19.390;-99.256;2022-10-22T05:24:13;9.48;;;8.57;;
20954;SDS011;10636;19.390;-99.256;2022-10-22T05:26:42;10.32;;;9.30;;
20954;SDS011;10636;19.390;-99.256;2022-10-22T05:29:10;17.13;;;15.88;;
20954;SDS011;10636;19.390;-99.256;2022-10-22T05:31:40;10.80;;;9.70;;
20954;SDS011;10636;19.390;-99.256;2022-10-22T05:34:08;11.05;;;10.00;;
20954;SDS011;10636;19.390;-99.256;2022-10-22T05:36:37;10.27;;;9.02;;
20954;SDS011;10636;19.390;-99.256;2022-10-22T05:39:05;9.95;;;9.05;;
20954;SDS011;10636;19.390;-99.256;2022-10-22T05:41:34;18.13;;;16.92;;
20954;SDS011;10636;19.390;-99.256;2022-10-22T05:44:03;18.08;;;16.88;;
20954;SDS011;10636;19.390;-99.256;2022-10-22T05:46:32;18.38;;;17.08;;
20954;SDS011;10636;19.390;-99.256;2022-10-22T05:49:04;17.65;;;16.45;;
20954;SDS011;10636;19.390;-99.256;2022-10-22T05:51:33;17.50;;;16.33;;
20954;SDS011;10636;19.390;-99.256;2022-10-22T05:54:03;17.55;;;16.35;;
20954;SDS011;10636;19.390;-99.256;2022-10-22T05:56:33;17.70;;;16.60;;
20954;SDS011;10636;19.390;-99.256;2022-10-22T05:59:02;12.70;;;11.50;;
20954;SDS011;10636;19.390;-99.256;2022-10-22T06:01:32;15.65;;;14.35;;
20954;SDS011;10636;19.390;-99.256;2022-10-22T06:04:03;19.25;;;17.95;;
20954;SDS011;10636;19.390;-99.256;2022-10-22T06:06:33;17.60;;;16.50;;
20954;SDS011;10636;19.390;-99.256;2022-10-22T06:09:04;18.75;;;17.35;;
20954;SDS011;10636;19.390;-99.256;2022-10-22T06:11:34;17.45;;;16.25;;
20954;SDS011;10636;19.390;-99.256;2022-10-22T06:14:02;18.58;;;17.30;;
20954;SDS011;10636;19.390;-99.256;2022-10-22T06:16:31;19.85;;;18.50;;
20954;SDS011;10636;19.390;-99.256;2022-10-22T06:18:59;18.02;;;16.73;;
20954;SDS011;10636;19.390;-99.256;2022-10-22T06:21:30;19.95;;;18.55;;
20954;SDS011;10636;19.390;-99.256;2022-10-22T06:23:59;11.25;;;10.20;;
20954;SDS011;10636;19.390;-99.256;2022-10-22T06:26:28;19.35;;;18.05;;
20954;SDS011;10636;19.390;-99.256;2022-10-22T06:28:57;14.25;;;13.05;;
20954;SDS011;10636;19.390;-99.256;2022-10-22T06:31:26;13.57;;;12.50;;
20954;SDS011;10636;19.390;-99.256;2022-10-22T06:34:01;19.48;;;18.17;;
20954;SDS011;10636;19.390;-99.256;2022-10-22T06:36:31;19.27;;;17.98;;
20954;SDS011;10636;19.390;-99.256;2022-10-22T06:38:59;18.88;;;17.65;;
20954;SDS011;10636;19.390;-99.256;2022-10-22T06:41:28;18.50;;;17.30;;
20954;SDS011;10636;19.390;-99.256;2022-10-22T06:43:57;20.02;;;18.63;;
20954;SDS011;10636;19.390;-99.256;2022-10-22T06:46:26;18.88;;;17.67;;
20954;SDS011;10636;19.390;-99.256;2022-10-22T06:48:57;18.90;;;17.60;;
20954;SDS011;10636;19.390;-99.256;2022-10-22T06:51:27;12.70;;;11.60;;
20954;SDS011;10636;19.390;-99.256;2022-10-22T06:53:58;15.90;;;14.50;;
20954;SDS011;10636;19.390;-99.256;2022-10-22T06:56:28;19.48;;;18.17;;
20954;SDS011;10636;19.390;-99.256;2022-10-22T06:58:57;19.95;;;18.63;;
20954;SDS011;10636;19.390;-99.256;2022-10-22T07:01:28;19.88;;;18.67;;
20954;SDS011;10636;19.390;-99.256;2022-10-22T07:03:58;18.23;;;16.90;;
20954;SDS011;10636;19.390;-99.256;2022-10-22T07:06:28;20.35;;;18.90;;
20954;SDS011;10636;19.390;-99.256;2022-10-22T07:08:58;11.98;;;10.85;;
20954;SDS011;10636;19.390;-99.256;2022-10-22T07:11:28;11.27;;;10.27;;
20954;SDS011;10636;19.390;-99.256;2022-10-22T07:14:03;20.63;;;19.23;;
20954;SDS011;10636;19.390;-99.256;2022-10-22T07:16:32;19.15;;;17.85;;
20954;SDS011;10636;19.390;-99.256;2022-10-22T07:19:02;21.15;;;19.77;;
20954;SDS011;10636;19.390;-99.256;2022-10-22T07:21:32;20.55;;;19.20;;
20954;SDS011;10636;19.390;-99.256;2022-10-22T07:24:02;19.70;;;18.40;;
20954;SDS011;10636;19.390;-99.256;2022-10-22T07:26:32;18.17;;;16.83;;
20954;SDS011;10636;19.390;-99.256;2022-10-22T07:29:01;12.27;;;11.07;;
20954;SDS011;10636;19.390;-99.256;2022-10-22T07:31:31;20.63;;;19.23;;
20954;SDS011;10636;19.390;-99.256;2022-10-22T07:34:00;12.70;;;11.25;;
20954;SDS011;10636;19.390;-99.256;2022-10-22T07:36:29;12.38;;;11.18;;
20954;SDS011;10636;19.390;-99.256;2022-10-22T07:38:58;19.50;;;18.20;;
20954;SDS011;10636;19.390;-99.256;2022-10-22T07:41:29;19.40;;;18.10;;
20954;SDS011;10636;19.390;-99.256;2022-10-22T07:43:58;20.30;;;18.92;;
20954;SDS011;10636;19.390;-99.256;2022-10-22T07:46:28;21.60;;;20.10;;
20954;SDS011;10636;19.390;-99.256;2022-10-22T07:48:57;13.60;;;12.40;;
20954;SDS011;10636;19.390;-99.256;2022-10-22T07:51:26;22.08;;;20.48;;
20954;SDS011;10636;19.390;-99.256;2022-10-22T07:53:55;19.90;;;18.58;;
20954;SDS011;10636;19.390;-99.256;2022-10-22T07:56:24;20.55;;;19.15;;
20954;SDS011;10636;19.390;-99.256;2022-10-22T07:58:55;20.08;;;18.67;;
20954;SDS011;10636;19.390;-99.256;2022-10-22T08:01:24;20.80;;;19.38;;
20954;SDS011;10636;19.390;-99.256;2022-10-22T08:03:53;20.30;;;19.02;;
20954;SDS011;10636;19.390;-99.256;2022-10-22T08:06:22;12.07;;;10.88;;
20954;SDS011;10636;19.390;-99.256;2022-10-22T08:08:51;20.73;;;19.33;;
20954;SDS011;10636;19.390;-99.256;2022-10-22T08:11:20;14.10;;;12.50;;
20954;SDS011;10636;19.390;-99.256;2022-10-22T08:13:49;14.93;;;13.75;;
20954;SDS011;10636;19.390;-99.256;2022-10-22T08:16:20;14.15;;;12.93;;
20954;SDS011;10636;19.390;-99.256;2022-10-22T08:18:49;11.60;;;10.50;;
20954;SDS011;10636;19.390;-99.256;2022-10-22T08:21:18;11.43;;;10.43;;
20954;SDS011;10636;19.390;-99.256;2022-10-22T08:23:47;10.93;;;9.93;;
20954;SDS011;10636;19.390;-99.256;2022-10-22T08:26:16;10.73;;;9.73;;
20954;SDS011;10636;19.390;-99.256;2022-10-22T08:28:46;17.42;;;16.20;;
20954;SDS011;10636;19.390;-99.256;2022-10-22T08:31:15;16.15;;;15.10;;
20954;SDS011;10636;19.390;-99.256;2022-10-22T08:33:45;18.13;;;17.02;;
20954;SDS011;10636;19.390;-99.256;2022-10-22T08:36:14;16.60;;;15.50;;
20954;SDS011;10636;19.390;-99.256;2022-10-22T08:38:44;11.00;;;10.05;;
20954;SDS011;10636;19.390;-99.256;2022-10-22T08:41:13;16.75;;;15.65;;
20954;SDS011;10636;19.390;-99.256;2022-10-22T08:47:01;11.30;;;10.40;;
20954;SDS011;10636;19.390;-99.256;2022-10-22T08:49:43;16.02;;;14.93;;
20954;SDS011;10636;19.390;-99.256;2022-10-22T08:52:13;17.52;;;16.23;;
20954;SDS011;10636;19.390;-99.256;2022-10-22T08:54:47;18.13;;;16.77;;
20954;SDS011;10636;19.390;-99.256;2022-10-22T08:57:22;18.08;;;16.95;;
20954;SDS011;10636;19.390;-99.256;2022-10-22T09:00:03;11.10;;;10.10;;
20954;SDS011;10636;19.390;-99.256;2022-10-22T09:02:35;10.30;;;9.50;;
20954;SDS011;10636;19.390;-99.256;2022-10-22T09:05:28;10.02;;;9.10;;
20954;SDS011;10636;19.390;-99.256;2022-10-22T09:08:08;10.52;;;9.65;;
20954;SDS011;10636;19.390;-99.256;2022-10-22T09:10:38;11.70;;;10.60;;
20954;SDS011;10636;19.390;-99.256;2022-10-22T18:46:28;35.88;;;33.60;;
20954;SDS011;10636;19.390;-99.256;2022-10-22T18:48:59;38.35;;;35.95;;
20954;SDS011;10636;19.390;-99.256;2022-10-22T18:51:28;41.47;;;38.83;;
20954;SDS011;10636;19.390;-99.256;2022-10-22T18:53:57;34.45;;;32.25;;
20954;SDS011;10636;19.390;-99.256;2022-10-22T18:56:26;38.17;;;35.70;;
20954;SDS011;10636;19.390;-99.256;2022-10-22T18:58:54;34.30;;;32.17;;
20954;SDS011;10636;19.390;-99.256;2022-10-22T19:01:23;36.15;;;33.75;;
20954;SDS011;10636;19.390;-99.256;2022-10-22T19:03:55;34.67;;;32.58;;
20954;SDS011;10636;19.390;-99.256;2022-10-22T19:06:24;29.38;;;27.48;;
20954;SDS011;10636;19.390;-99.256;2022-10-22T19:08:56;28.48;;;26.70;;
20954;SDS011;10636;19.390;-99.256;2022-10-22T19:11:25;26.73;;;24.98;;
20954;SDS011;10636;19.390;-99.256;2022-10-22T19:13:54;24.23;;;22.42;;
20954;SDS011;10636;19.390;-99.256;2022-10-22T19:16:22;22.10;;;20.65;;
20954;SDS011;10636;19.390;-99.256;2022-10-22T19:18:51;21.35;;;19.85;;
20954;SDS011;10636;19.390;-99.256;2022-10-22T19:21:28;21.17;;;19.67;;
20954;SDS011;10636;19.390;-99.256;2022-10-22T19:23:57;21.95;;;20.35;;
20954;SDS011;10636;19.390;-99.256;2022-10-22T19:26:27;20.15;;;18.73;;
20954;SDS011;10636;19.390;-99.256;2022-10-22T19:28:56;19.52;;;18.13;;
20954;SDS011;10636;19.390;-99.256;2022-10-22T19:31:26;20.17;;;18.88;;
20954;SDS011;10636;19.390;-99.256;2022-10-22T19:33:56;23.20;;;21.50;;
20954;SDS011;10636;19.390;-99.256;2022-10-22T19:36:26;20.42;;;18.92;;
20954;SDS011;10636;19.390;-99.256;2022-10-22T19:38:57;20.23;;;18.83;;
20954;SDS011;10636;19.390;-99.256;2022-10-22T19:41:26;21.95;;;20.35;;
20954;SDS011;10636;19.390;-99.256;2022-10-22T19:43:56;21.60;;;20.10;;
20954;SDS011;10636;19.390;-99.256;2022-10-22T19:46:27;13.32;;;12.15;;
20954;SDS011;10636;19.390;-99.256;2022-10-22T19:48:57;13.48;;;12.13;;
20954;SDS011;10636;19.390;-99.256;2022-10-22T19:51:28;15.27;;;13.80;;
20954;SDS011;10636;19.390;-99.256;2022-10-22T19:53:58;39.67;;;36.83;;
20954;SDS011;10636;19.390;-99.256;2022-10-22T19:56:28;29.15;;;26.95;;
20954;SDS011;10636;19.390;-99.256;2022-10-22T19:58:57;80.25;;;72.80;;
20954;SDS011;10636;19.390;-99.256;2022-10-22T20:01:26;67.30;;;56.00;;
20954;SDS011;10636;19.390;-99.256;2022-10-22T20:03:56;123.43;;;95.00;;
20954;SDS011;10636;19.390;-99.256;2022-10-22T20:06:27;101.57;;;80.25;;
20954;SDS011;10636;19.390;-99.256;2022-10-22T20:08:57;83.70;;;66.28;;
20954;SDS011;10636;19.390;-99.256;2022-10-22T20:11:27;75.18;;;67.75;;
20954;SDS011;10636;19.390;-99.256;2022-10-22T20:13:56;61.05;;;55.25;;
20954;SDS011;10636;19.390;-99.256;2022-10-22T20:16:26;43.35;;;38.15;;
20954;SDS011;10636;19.390;-99.256;2022-10-22T20:18:58;41.33;;;36.60;;
20954;SDS011;10636;19.390;-99.256;2022-10-22T20:21:30;108.25;;;85.70;;
20954;SDS011;10636;19.390;-99.256;2022-10-22T20:23:59;305.48;;;163.52;;
20954;SDS011;10636;19.390;-99.256;2022-10-22T20:26:28;366.63;;;166.90;;
20954;SDS011;10636;19.390;-99.256;2022-10-22T20:28:58;436.42;;;252.30;;
20954;SDS011;10636;19.390;-99.256;2022-10-22T20:31:27;453.25;;;215.60;;
20954;SDS011;10636;19.390;-99.256;2022-10-22T20:33:58;429.80;;;206.60;;
20954;SDS011;10636;19.390;-99.256;2022-10-22T20:36:32;354.90;;;166.38;;
20954;SDS011;10636;19.390;-99.256;2022-10-22T20:39:03;299.23;;;143.25;;
20954;SDS011;10636;19.390;-99.256;2022-10-22T20:41:34;291.95;;;122.72;;
20954;SDS011;10636;19.390;-99.256;2022-10-22T20:44:05;239.57;;;113.82;;
20954;SDS011;10636;19.390;-99.256;2022-10-22T20:46:34;172.27;;;92.53;;
20954;SDS011;10636;19.390;-99.256;2022-10-22T20:49:03;156.68;;;103.35;;
20954;SDS011;10636;19.390;-99.256;2022-10-22T20:51:35;111.57;;;87.65;;
20954;SDS011;10636;19.390;-99.256;2022-10-22T20:54:04;104.78;;;81.03;;
20954;SDS011;10636;19.390;-99.256;2022-10-22T20:56:34;97.93;;;74.22;;
20954;SDS011;10636;19.390;-99.256;2022-10-22T20:59:04;82.07;;;67.07;;
20954;SDS011;10636;19.390;-99.256;2022-10-22T21:01:36;68.60;;;42.38;;
20954;SDS011;10636;19.390;-99.256;2022-10-22T21:04:06;42.97;;;31.10;;
20954;SDS011;10636;19.390;-99.256;2022-10-22T21:06:37;52.08;;;34.90;;
20954;SDS011;10636;19.390;-99.256;2022-10-22T21:09:08;36.38;;;26.60;;
20954;SDS011;10636;19.390;-99.256;2022-10-22T21:11:37;32.30;;;24.83;;
20954;SDS011;10636;19.390;-99.256;2022-10-22T21:14:07;27.67;;;22.05;;
20954;SDS011;10636;19.390;-99.256;2022-10-22T21:16:39;47.78;;;43.90;;
20954;SDS011;10636;19.390;-99.256;2022-10-22T21:19:08;22.98;;;20.27;;
20954;SDS011;10636;19.390;-99.256;2022-10-22T21:21:39;40.40;;;37.53;;
20954;SDS011;10636;19.390;-99.256;2022-10-22T21:24:07;21.13;;;18.15;;
20954;SDS011;10636;19.390;-99.256;2022-10-22T21:26:36;20.85;;;16.98;;
20954;SDS011;10636;19.390;-99.256;2022-10-22T21:29:05;17.08;;;15.27;;
20954;SDS011;10636;19.390;-99.256;2022-10-22T21:31:34;16.63;;;14.93;;
20954;SDS011;10636;19.390;-99.256;2022-10-22T21:34:03;32.65;;;30.42;;
20954;SDS011;10636;19.390;-99.256;2022-10-22T21:36:32;34.83;;;32.65;;
20954;SDS011;10636;19.390;-99.256;2022-10-22T21:39:03;16.17;;;14.60;;
20954;SDS011;10636;19.390;-99.256;2022-10-22T21:41:31;32.83;;;30.65;;
20954;SDS011;10636;19.390;-99.256;2022-10-22T21:44:00;30.10;;;28.00;;
20954;SDS011;10636;19.390;-99.256;2022-10-22T21:46:29;33.22;;;31.23;;
20954;SDS011;10636;19.390;-99.256;2022-10-22T21:49:00;29.55;;;27.40;;
20954;SDS011;10636;19.390;-99.256;2022-10-22T21:51:30;30.20;;;28.25;;
20954;SDS011;10636;19.390;-99.256;2022-10-22T21:54:02;14.40;;;13.10;;
20954;SDS011;10636;19.390;-99.256;2022-10-22T21:56:32;14.60;;;13.15;;
20954;SDS011;10636;19.390;-99.256;2022-10-22T21:59:02;26.48;;;24.85;;
20954;SDS011;10636;19.390;-99.256;2022-10-22T22:01:31;25.88;;;24.27;;
20954;SDS011;10636;19.390;-99.256;2022-10-22T22:04:08;27.15;;;25.35;;
20954;SDS011;10636;19.390;-99.256;2022-10-22T22:06:43;29.02;;;27.13;;
20954;SDS011;10636;19.390;-99.256;2022-10-22T22:09:21;13.95;;;12.55;;
20954;SDS011;10636;19.390;-99.256;2022-10-22T22:11:55;15.60;;;14.10;;
20954;SDS011;10636;19.390;-99.256;2022-10-22T22:14:27;25.27;;;23.58;;
20954;SDS011;10636;19.390;-99.256;2022-10-22T22:16:59;15.85;;;14.27;;
20954;SDS011;10636;19.390;-99.256;2022-10-22T22:19:30;21.60;;;20.00;;
20954;SDS011;10636;19.390;-99.256;2022-10-22T22:22:12;23.23;;;21.77;;
20954;SDS011;10636;19.390;-99.256;2022-10-22T22:24:46;24.58;;;23.13;;
20954;SDS011;10636;19.390;-99.256;2022-10-22T22:27:19;25.73;;;24.10;;
20954;SDS011;10636;19.390;-99.256;2022-10-22T22:29:56;27.60;;;25.88;;
20954;SDS011;10636;19.390;-99.256;2022-10-22T22:32:34;25.05;;;23.50;;
20954;SDS011;10636;19.390;-99.256;2022-10-22T22:35:07;23.33;;;21.92;;
20954;SDS011;10636;19.390;-99.256;2022-10-22T22:37:36;25.85;;;24.25;;
20954;SDS011;10636;19.390;-99.256;2022-10-22T22:40:12;29.20;;;27.50;;
20954;SDS011;10636;19.390;-99.256;2022-10-22T22:42:43;28.92;;;27.30;;
20954;SDS011;10636;19.390;-99.256;2022-10-22T22:45:14;29.98;;;28.27;;
20954;SDS011;10636;19.390;-99.256;2022-10-22T22:47:48;31.55;;;29.80;;
20954;SDS011;10636;19.390;-99.256;2022-10-22T22:50:19;25.45;;;23.95;;
20954;SDS011;10636;19.390;-99.256;2022-10-22T22:52:49;23.40;;;21.90;;
20954;SDS011;10636;19.390;-99.256;2022-10-22T22:55:21;23.35;;;21.75;;
20954;SDS011;10636;19.390;-99.256;2022-10-22T22:57:54;9.85;;;8.95;;
20954;SDS011;10636;19.390;-99.256;2022-10-22T23:00:24;21.85;;;20.45;;
20954;SDS011;10636;19.390;-99.256;2022-10-22T23:02:53;18.33;;;17.13;;
20954;SDS011;10636;19.390;-99.256;2022-10-22T23:05:27;19.90;;;18.58;;
20954;SDS011;10636;19.390;-99.256;2022-10-22T23:07:57;15.77;;;14.52;;
20954;SDS011;10636;19.390;-99.256;2022-10-22T23:10:34;18.58;;;17.38;;
20954;SDS011;10636;19.390;-99.256;2022-10-22T23:13:05;18.98;;;17.55;;
20954;SDS011;10636;19.390;-99.256;2022-10-22T23:15:33;19.30;;;18.10;;
20954;SDS011;10636;19.390;-99.256;2022-10-22T23:18:06;19.85;;;18.55;;
20954;SDS011;10636;19.390;-99.256;2022-10-22T23:20:36;17.75;;;16.48;;
20954;SDS011;10636;19.390;-99.256;2022-10-22T23:23:06;17.33;;;16.23;;
20954;SDS011;10636;19.390;-99.256;2022-10-22T23:25:41;18.23;;;17.02;;
20954;SDS011;10636;19.390;-99.256;2022-10-22T23:28:10;18.17;;;16.92;;
20954;SDS011;10636;19.390;-99.256;2022-10-22T23:30:42;18.70;;;17.50;;
20954;SDS011;10636;19.390;-99.256;2022-10-22T23:33:13;17.48;;;16.25;;
20954;SDS011;10636;19.390;-99.256;2022-10-22T23:35:49;9.95;;;8.95;;
20954;SDS011;10636;19.390;-99.256;2022-10-22T23:38:19;17.77;;;16.58;;
20954;SDS011;10636;19.390;-99.256;2022-10-22T23:40:54;18.08;;;16.98;;
20954;SDS011;10636;19.390;-99.256;2022-10-22T23:43:25;18.38;;;17.27;;
20954;SDS011;10636;19.390;-99.256;2022-10-22T23:46:00;18.45;;;17.27;;
20954;SDS011;10636;19.390;-99.256;2022-10-22T23:48:32;20.33;;;19.10;;
20954;SDS011;10636;19.390;-99.256;2022-10-22T23:51:09;9.50;;;8.60;;
20954;SDS011;10636;19.390;-99.256;2022-10-22T23:53:52;9.35;;;8.50;;
20954;SDS011;10636;19.390;-99.256;2022-10-22T23:56:24;11.15;;;9.25;;
20954;SDS011;10636;19.390;-99.256;2022-10-22T23:59:02;16.98;;;15.77;;
